sensor_id;sensor_type;location;lat;lon;timestamp;pressure;altitude;pressure_sealevel;temperature;humidity
73171;BME280;61381;50.118;19.962;2023-04-24T00:03:47;97671.03;;;8.51;100.00
73171;BME280;61381;50.118;19.962;2023-04-24T00:08:48;97660.38;;;8.51;100.00
73171;BME280;61381;50.118;19.962;2023-04-24T00:13:49;97653.59;;;8.39;100.00
73171;BME280;61381;50.118;19.962;2023-04-24T00:18:52;97646.00;;;8.28;100.00
73171;BME280;61381;50.118;19.962;2023-04-24T00:23:53;97649.00;;;8.07;100.00
73171;BME280;61381;50.118;19.962;2023-04-24T00:28:54;97653.09;;;7.99;100.00
73171;BME280;61381;50.118;19.962;2023-04-24T00:33:56;97646.09;;;7.84;100.00
73171;BME280;61381;50.118;19.962;2023-04-24T00:38:58;97629.88;;;8.00;100.00
73171;BME280;61381;50.118;19.962;2023-04-24T00:43:59;97632.53;;;8.00;100.00
73171;BME280;61381;50.118;19.962;2023-04-24T00:49:02;97629.00;;;7.85;100.00
73171;BME280;61381;50.118;19.962;2023-04-24T00:54:03;97635.09;;;7.67;100.00
73171;BME280;61381;50.118;19.962;2023-04-24T00:59:04;97624.50;;;7.62;100.00
73171;BME280;61381;50.118;19.962;2023-04-24T01:04:07;97614.81;;;7.47;100.00
73171;BME280;61381;50.118;19.962;2023-04-24T01:09:09;97615.78;;;7.56;100.00
73171;BME280;61381;50.118;19.962;2023-04-24T01:14:11;97611.09;;;7.48;100.00
73171;BME280;61381;50.118;19.962;2023-04-24T01:19:15;97604.03;;;7.38;100.00
73171;BME280;61381;50.118;19.962;2023-04-24T01:24:19;97607.78;;;7.56;100.00
73171;BME280;61381;50.118;19.962;2023-04-24T01:29:20;97610.41;;;7.80;100.00
73171;BME280;61381;50.118;19.962;2023-04-24T01:34:21;97608.38;;;7.91;100.00
73171;BME280;61381;50.118;19.962;2023-04-24T01:39:24;97597.22;;;7.70;100.00
73171;BME280;61381;50.118;19.962;2023-04-24T01:44:25;97591.66;;;7.66;100.00
73171;BME280;61381;50.118;19.962;2023-04-24T01:49:27;97585.75;;;7.50;100.00
73171;BME280;61381;50.118;19.962;2023-04-24T01:54:29;97585.66;;;7.37;100.00
73171;BME280;61381;50.118;19.962;2023-04-24T01:59:30;97574.47;;;7.35;100.00
73171;BME280;61381;50.118;19.962;2023-04-24T02:04:32;97569.69;;;7.12;100.00
73171;BME280;61381;50.118;19.962;2023-04-24T02:09:35;97560.28;;;7.20;100.00
73171;BME280;61381;50.118;19.962;2023-04-24T02:14:36;97562.28;;;7.53;100.00
73171;BME280;61381;50.118;19.962;2023-04-24T02:19:37;97556.16;;;7.52;100.00
73171;BME280;61381;50.118;19.962;2023-04-24T02:24:39;97551.56;;;7.14;100.00
73171;BME280;61381;50.118;19.962;2023-04-24T02:29:41;97549.75;;;6.86;100.00
73171;BME280;61381;50.118;19.962;2023-04-24T02:34:41;97536.88;;;6.69;100.00
73171;BME280;61381;50.118;19.962;2023-04-24T02:39:44;97528.56;;;6.51;100.00
73171;BME280;61381;50.118;19.962;2023-04-24T02:44:45;97522.81;;;6.39;100.00
73171;BME280;61381;50.118;19.962;2023-04-24T02:49:46;97522.25;;;6.42;100.00
73171;BME280;61381;50.118;19.962;2023-04-24T02:54:48;97517.94;;;6.46;100.00
73171;BME280;61381;50.118;19.962;2023-04-24T02:59:49;97518.28;;;6.39;100.00
73171;BME280;61381;50.118;19.962;2023-04-24T03:04:50;97514.72;;;6.25;100.00
73171;BME280;61381;50.118;19.962;2023-04-24T03:09:53;97521.41;;;6.47;100.00
73171;BME280;61381;50.118;19.962;2023-04-24T03:14:54;97532.94;;;6.66;100.00
73171;BME280;61381;50.118;19.962;2023-04-24T03:19:55;97526.59;;;6.62;100.00
73171;BME280;61381;50.118;19.962;2023-04-24T03:24:57;97525.78;;;6.86;100.00
73171;BME280;61381;50.118;19.962;2023-04-24T03:29:58;97519.09;;;7.31;100.00
73171;BME280;61381;50.118;19.962;2023-04-24T03:34:59;97523.78;;;6.96;100.00
73171;BME280;61381;50.118;19.962;2023-04-24T03:40:02;97524.50;;;6.83;100.00
73171;BME280;61381;50.118;19.962;2023-04-24T03:45:03;97527.47;;;7.01;100.00
73171;BME280;61381;50.118;19.962;2023-04-24T03:50:05;97523.31;;;7.57;100.00
73171;BME280;61381;50.118;19.962;2023-04-24T03:55:08;97525.13;;;8.60;98.89
73171;BME280;61381;50.118;19.962;2023-04-24T04:00:11;97533.66;;;9.04;95.61
73171;BME280;61381;50.118;19.962;2023-04-24T04:05:12;97539.06;;;9.40;91.68
73171;BME280;61381;50.118;19.962;2023-04-24T04:10:14;97542.91;;;9.85;88.05
73171;BME280;61381;50.118;19.962;2023-04-24T04:15:15;97538.47;;;10.03;86.58
73171;BME280;61381;50.118;19.962;2023-04-24T04:20:16;97536.72;;;10.21;84.64
73171;BME280;61381;50.118;19.962;2023-04-24T04:25:19;97532.78;;;10.41;83.09
73171;BME280;61381;50.118;19.962;2023-04-24T04:30:20;97536.13;;;10.86;80.89
73171;BME280;61381;50.118;19.962;2023-04-24T04:35:21;97533.50;;;12.79;71.27
73171;BME280;61381;50.118;19.962;2023-04-24T04:40:23;97550.06;;;14.46;64.88
73171;BME280;61381;50.118;19.962;2023-04-24T04:45:25;97557.13;;;16.11;58.17
73171;BME280;61381;50.118;19.962;2023-04-24T04:50:26;97557.00;;;17.63;52.70
73171;BME280;61381;50.118;19.962;2023-04-24T04:55:28;97559.84;;;18.06;49.79
73171;BME280;61381;50.118;19.962;2023-04-24T05:00:29;97563.06;;;17.92;49.77
73171;BME280;61381;50.118;19.962;2023-04-24T05:05:30;97561.91;;;18.75;46.53
73171;BME280;61381;50.118;19.962;2023-04-24T05:10:32;97566.03;;;18.46;47.42
73171;BME280;61381;50.118;19.962;2023-04-24T05:15:33;97572.94;;;19.59;45.14
73171;BME280;61381;50.118;19.962;2023-04-24T05:20:34;97582.50;;;21.67;40.14
73171;BME280;61381;50.118;19.962;2023-04-24T05:25:37;97580.63;;;21.82;37.65
73171;BME280;61381;50.118;19.962;2023-04-24T05:30:38;97576.47;;;22.17;36.49
73171;BME280;61381;50.118;19.962;2023-04-24T05:35:40;97575.63;;;21.95;35.87
73171;BME280;61381;50.118;19.962;2023-04-24T05:40:42;97582.16;;;23.47;34.96
73171;BME280;61381;50.118;19.962;2023-04-24T05:45:43;97582.41;;;22.37;35.77
73171;BME280;61381;50.118;19.962;2023-04-24T05:50:44;97573.94;;;23.65;32.89
73171;BME280;61381;50.118;19.962;2023-04-24T05:55:47;97577.84;;;22.67;34.80
73171;BME280;61381;50.118;19.962;2023-04-24T06:00:48;97571.19;;;23.76;34.45
73171;BME280;61381;50.118;19.962;2023-04-24T06:05:49;97573.09;;;23.82;33.66
73171;BME280;61381;50.118;19.962;2023-04-24T06:10:52;97557.06;;;20.97;37.76
73171;BME280;61381;50.118;19.962;2023-04-24T06:15:53;97541.88;;;18.60;42.84
73171;BME280;61381;50.118;19.962;2023-04-24T06:20:54;97537.69;;;17.29;47.62
73171;BME280;61381;50.118;19.962;2023-04-24T06:25:56;97535.56;;;16.43;50.52
73171;BME280;61381;50.118;19.962;2023-04-24T06:30:57;97533.19;;;16.26;52.71
73171;BME280;61381;50.118;19.962;2023-04-24T06:36:00;97529.53;;;17.81;47.09
73171;BME280;61381;50.118;19.962;2023-04-24T06:41:02;97525.63;;;17.98;47.49
73171;BME280;61381;50.118;19.962;2023-04-24T06:46:03;97532.75;;;20.02;42.56
73171;BME280;61381;50.118;19.962;2023-04-24T06:51:04;97527.94;;;19.61;42.28
73171;BME280;61381;50.118;19.962;2023-04-24T06:56:07;97520.72;;;18.93;42.94
73171;BME280;61381;50.118;19.962;2023-04-24T07:01:08;97518.16;;;19.57;44.06
73171;BME280;61381;50.118;19.962;2023-04-24T07:06:09;97514.69;;;18.57;47.12
73171;BME280;61381;50.118;19.962;2023-04-24T07:11:11;97516.03;;;19.43;44.28
73171;BME280;61381;50.118;19.962;2023-04-24T07:16:12;97520.47;;;20.94;41.35
73171;BME280;61381;50.118;19.962;2023-04-24T07:21:13;97521.88;;;21.33;40.78
73171;BME280;61381;50.118;19.962;2023-04-24T07:26:16;97508.00;;;21.49;38.98
73171;BME280;61381;50.118;19.962;2023-04-24T07:31:17;97513.06;;;22.49;37.63
73171;BME280;61381;50.118;19.962;2023-04-24T07:36:18;97501.38;;;22.85;37.54
73171;BME280;61381;50.118;19.962;2023-04-24T07:41:20;97519.34;;;24.95;29.46
73171;BME280;61381;50.118;19.962;2023-04-24T07:46:21;97520.59;;;25.70;28.85
73171;BME280;61381;50.118;19.962;2023-04-24T07:51:23;97523.13;;;25.54;29.72
73171;BME280;61381;50.118;19.962;2023-04-24T07:56:25;97507.84;;;24.62;30.29
73171;BME280;61381;50.118;19.962;2023-04-24T08:01:26;97506.25;;;23.98;30.12
73171;BME280;61381;50.118;19.962;2023-04-24T08:06:27;97497.22;;;24.08;30.74
73171;BME280;61381;50.118;19.962;2023-04-24T08:11:30;97503.31;;;24.93;28.62
73171;BME280;61381;50.118;19.962;2023-04-24T08:16:32;97506.44;;;24.39;29.36
73171;BME280;61381;50.118;19.962;2023-04-24T08:21:33;97482.13;;;22.02;31.55
73171;BME280;61381;50.118;19.962;2023-04-24T08:26:36;97484.22;;;21.46;33.83
73171;BME280;61381;50.118;19.962;2023-04-24T08:31:37;97470.16;;;21.40;33.14
73171;BME280;61381;50.118;19.962;2023-04-24T08:36:38;97469.34;;;21.32;32.10
73171;BME280;61381;50.118;19.962;2023-04-24T08:41:41;97472.91;;;22.71;30.27
73171;BME280;61381;50.118;19.962;2023-04-24T08:46:44;97469.78;;;23.09;30.13
73171;BME280;61381;50.118;19.962;2023-04-24T08:51:45;97470.94;;;23.19;26.91
73171;BME280;61381;50.118;19.962;2023-04-24T08:56:48;97461.88;;;23.54;30.02
73171;BME280;61381;50.118;19.962;2023-04-24T09:01:51;97465.28;;;23.80;27.55
73171;BME280;61381;50.118;19.962;2023-04-24T09:06:55;97452.94;;;23.28;27.62
73171;BME280;61381;50.118;19.962;2023-04-24T09:11:58;97461.44;;;23.59;27.89
73171;BME280;61381;50.118;19.962;2023-04-24T09:16:59;97455.44;;;23.93;25.94
73171;BME280;61381;50.118;19.962;2023-04-24T09:22:04;97452.34;;;23.91;26.46
73171;BME280;61381;50.118;19.962;2023-04-24T09:27:07;97441.94;;;23.57;27.86
73171;BME280;61381;50.118;19.962;2023-04-24T09:32:21;97426.78;;;23.31;28.96
73171;BME280;61381;50.118;19.962;2023-04-24T09:37:27;97419.25;;;23.60;28.35
73171;BME280;61381;50.118;19.962;2023-04-24T09:42:30;97435.94;;;23.91;26.05
73171;BME280;61381;50.118;19.962;2023-04-24T09:47:36;97428.38;;;23.00;26.28
73171;BME280;61381;50.118;19.962;2023-04-24T09:52:40;97427.91;;;24.22;25.51
73171;BME280;61381;50.118;19.962;2023-04-24T09:57:49;97422.22;;;24.51;26.75
73171;BME280;61381;50.118;19.962;2023-04-24T10:02:51;97413.31;;;24.88;25.63
73171;BME280;61381;50.118;19.962;2023-04-24T10:07:59;97423.38;;;25.02;23.80
73171;BME280;61381;50.118;19.962;2023-04-24T10:13:02;97414.16;;;24.36;25.71
73171;BME280;61381;50.118;19.962;2023-04-24T10:18:04;97405.00;;;24.54;26.08
73171;BME280;61381;50.118;19.962;2023-04-24T10:23:06;97405.59;;;25.18;24.56
73171;BME280;61381;50.118;19.962;2023-04-24T10:28:09;97397.56;;;24.58;25.81
73171;BME280;61381;50.118;19.962;2023-04-24T10:33:11;97385.19;;;24.35;25.35
73171;BME280;61381;50.118;19.962;2023-04-24T10:38:14;97392.31;;;24.74;26.40
73171;BME280;61381;50.118;19.962;2023-04-24T10:43:18;97393.19;;;24.12;25.22
73171;BME280;61381;50.118;19.962;2023-04-24T10:48:26;97384.81;;;23.74;25.75
73171;BME280;61381;50.118;19.962;2023-04-24T10:53:28;97390.31;;;23.66;23.88
73171;BME280;61381;50.118;19.962;2023-04-24T10:58:39;97388.66;;;23.87;23.50
73171;BME280;61381;50.118;19.962;2023-04-24T11:03:50;97371.19;;;23.63;24.88
73171;BME280;61381;50.118;19.962;2023-04-24T11:08:51;97382.38;;;23.94;24.88
73171;BME280;61381;50.118;19.962;2023-04-24T11:14:05;97379.69;;;23.83;25.15
73171;BME280;61381;50.118;19.962;2023-04-24T11:19:08;97376.00;;;24.11;25.80
73171;BME280;61381;50.118;19.962;2023-04-24T11:24:24;97376.53;;;23.88;24.48
73171;BME280;61381;50.118;19.962;2023-04-24T11:29:44;97350.34;;;23.02;24.38
73171;BME280;61381;50.118;19.962;2023-04-24T11:34:47;97355.91;;;22.37;26.08
73171;BME280;61381;50.118;19.962;2023-04-24T11:39:51;97358.03;;;24.07;28.02
73171;BME280;61381;50.118;19.962;2023-04-24T11:44:54;97356.00;;;24.21;24.25
73171;BME280;61381;50.118;19.962;2023-04-24T11:49:55;97349.38;;;25.02;24.96
73171;BME280;61381;50.118;19.962;2023-04-24T11:54:56;97352.53;;;24.63;24.55
73171;BME280;61381;50.118;19.962;2023-04-24T11:59:59;97332.94;;;24.64;25.02
73171;BME280;61381;50.118;19.962;2023-04-24T12:05:00;97334.38;;;23.78;25.06
73171;BME280;61381;50.118;19.962;2023-04-24T12:10:01;97336.91;;;24.11;24.42
73171;BME280;61381;50.118;19.962;2023-04-24T12:15:07;97331.09;;;24.50;24.62
73171;BME280;61381;50.118;19.962;2023-04-24T12:20:09;97328.69;;;24.60;23.92
73171;BME280;61381;50.118;19.962;2023-04-24T12:25:11;97319.41;;;23.30;25.72
73171;BME280;61381;50.118;19.962;2023-04-24T12:30:15;97299.97;;;23.81;26.06
73171;BME280;61381;50.118;19.962;2023-04-24T12:35:19;97307.28;;;24.47;25.62
73171;BME280;61381;50.118;19.962;2023-04-24T12:40:25;97300.69;;;24.37;25.67
73171;BME280;61381;50.118;19.962;2023-04-24T12:45:27;97304.13;;;24.49;25.80
73171;BME280;61381;50.118;19.962;2023-04-24T12:50:28;97286.75;;;24.25;27.91
73171;BME280;61381;50.118;19.962;2023-04-24T12:55:29;97306.72;;;23.65;31.18
73171;BME280;61381;50.118;19.962;2023-04-24T13:00:32;97295.47;;;22.17;38.22
73171;BME280;61381;50.118;19.962;2023-04-24T13:05:33;97288.84;;;21.53;41.57
73171;BME280;61381;50.118;19.962;2023-04-24T13:10:34;97282.72;;;20.79;43.30
73171;BME280;61381;50.118;19.962;2023-04-24T13:15:36;97287.44;;;20.27;44.03
73171;BME280;61381;50.118;19.962;2023-04-24T13:20:39;97295.00;;;19.96;45.47
73171;BME280;61381;50.118;19.962;2023-04-24T13:25:40;97292.63;;;19.50;46.54
73171;BME280;61381;50.118;19.962;2023-04-24T13:30:43;97290.25;;;19.11;48.93
73171;BME280;61381;50.118;19.962;2023-04-24T13:35:44;97307.19;;;19.00;49.44
73171;BME280;61381;50.118;19.962;2023-04-24T13:40:45;97298.16;;;18.62;50.95
73171;BME280;61381;50.118;19.962;2023-04-24T13:45:48;97273.94;;;18.20;51.83
73171;BME280;61381;50.118;19.962;2023-04-24T13:50:49;97295.13;;;18.41;51.58
73171;BME280;61381;50.118;19.962;2023-04-24T13:55:50;97289.50;;;17.99;51.15
73171;BME280;61381;50.118;19.962;2023-04-24T14:00:52;97299.66;;;17.83;51.37
73171;BME280;61381;50.118;19.962;2023-04-24T14:05:54;97311.06;;;17.73;52.78
73171;BME280;61381;50.118;19.962;2023-04-24T14:10:55;97308.03;;;17.55;54.38
73171;BME280;61381;50.118;19.962;2023-04-24T14:15:57;97315.25;;;17.47;53.68
73171;BME280;61381;50.118;19.962;2023-04-24T14:20:58;97311.56;;;17.55;55.24
73171;BME280;61381;50.118;19.962;2023-04-24T14:26:00;97308.03;;;17.55;54.69
73171;BME280;61381;50.118;19.962;2023-04-24T14:31:02;97310.84;;;17.58;54.98
73171;BME280;61381;50.118;19.962;2023-04-24T14:36:03;97319.06;;;17.65;56.43
73171;BME280;61381;50.118;19.962;2023-04-24T14:41:04;97318.28;;;17.65;55.78
73171;BME280;61381;50.118;19.962;2023-04-24T14:46:07;97320.59;;;17.63;55.48
73171;BME280;61381;50.118;19.962;2023-04-24T14:51:08;97316.50;;;17.73;55.98
73171;BME280;61381;50.118;19.962;2023-04-24T14:56:09;97317.19;;;17.89;56.82
73171;BME280;61381;50.118;19.962;2023-04-24T15:01:11;97315.38;;;17.97;56.71
73171;BME280;61381;50.118;19.962;2023-04-24T15:06:12;97320.56;;;18.06;56.00
73171;BME280;61381;50.118;19.962;2023-04-24T15:11:14;97324.09;;;18.10;55.76
73171;BME280;61381;50.118;19.962;2023-04-24T15:16:16;97317.13;;;17.86;55.43
73171;BME280;61381;50.118;19.962;2023-04-24T15:21:17;97320.06;;;17.77;54.68
73171;BME280;61381;50.118;19.962;2023-04-24T15:26:18;97320.50;;;17.59;53.76
73171;BME280;61381;50.118;19.962;2023-04-24T15:31:21;97322.19;;;17.25;54.12
73171;BME280;61381;50.118;19.962;2023-04-24T15:36:22;97325.31;;;17.07;55.34
73171;BME280;61381;50.118;19.962;2023-04-24T15:41:23;97328.03;;;17.07;55.95
73171;BME280;61381;50.118;19.962;2023-04-24T15:46:25;97316.59;;;17.14;56.23
73171;BME280;61381;50.118;19.962;2023-04-24T15:51:26;97316.38;;;17.23;56.85
73171;BME280;61381;50.118;19.962;2023-04-24T15:56:27;97321.69;;;17.19;56.72
73171;BME280;61381;50.118;19.962;2023-04-24T16:01:30;97322.97;;;16.86;57.25
73171;BME280;61381;50.118;19.962;2023-04-24T16:06:31;97321.00;;;16.67;58.74
73171;BME280;61381;50.118;19.962;2023-04-24T16:11:32;97330.09;;;16.59;61.27
73171;BME280;61381;50.118;19.962;2023-04-24T16:16:35;97322.38;;;16.26;67.01
73171;BME280;61381;50.118;19.962;2023-04-24T16:21:36;97326.22;;;16.09;71.38
73171;BME280;61381;50.118;19.962;2023-04-24T16:26:37;97313.50;;;15.77;67.53
73171;BME280;61381;50.118;19.962;2023-04-24T16:31:40;97317.13;;;15.69;66.83
73171;BME280;61381;50.118;19.962;2023-04-24T16:36:41;97331.38;;;15.54;66.51
73171;BME280;61381;50.118;19.962;2023-04-24T16:41:42;97322.13;;;15.39;67.85
73171;BME280;61381;50.118;19.962;2023-04-24T16:46:45;97324.00;;;15.22;68.03
73171;BME280;61381;50.118;19.962;2023-04-24T16:51:46;97322.34;;;15.05;69.64
73171;BME280;61381;50.118;19.962;2023-04-24T16:56:47;97325.22;;;14.96;70.00
73171;BME280;61381;50.118;19.962;2023-04-24T17:01:49;97319.50;;;14.86;70.59
73171;BME280;61381;50.118;19.962;2023-04-24T17:06:50;97322.44;;;14.80;70.72
73171;BME280;61381;50.118;19.962;2023-04-24T17:11:51;97318.31;;;14.71;71.96
73171;BME280;61381;50.118;19.962;2023-04-24T17:16:54;97316.03;;;14.73;71.84
73171;BME280;61381;50.118;19.962;2023-04-24T17:21:55;97322.59;;;14.72;73.69
73171;BME280;61381;50.118;19.962;2023-04-24T17:26:56;97321.69;;;14.55;74.77
73171;BME280;61381;50.118;19.962;2023-04-24T17:31:58;97320.09;;;14.42;76.34
73171;BME280;61381;50.118;19.962;2023-04-24T17:36:59;97327.41;;;14.41;76.97
73171;BME280;61381;50.118;19.962;2023-04-24T17:42:00;97320.03;;;14.26;79.65
73171;BME280;61381;50.118;19.962;2023-04-24T17:47:03;97324.41;;;14.06;81.91
73171;BME280;61381;50.118;19.962;2023-04-24T17:52:04;97320.09;;;13.80;84.48
73171;BME280;61381;50.118;19.962;2023-04-24T17:57:06;97321.81;;;13.51;88.14
73171;BME280;61381;50.118;19.962;2023-04-24T18:02:08;97320.94;;;13.26;91.69
73171;BME280;61381;50.118;19.962;2023-04-24T18:07:09;97327.31;;;13.22;92.75
73171;BME280;61381;50.118;19.962;2023-04-24T18:12:10;97330.59;;;13.06;94.54
73171;BME280;61381;50.118;19.962;2023-04-24T18:17:13;97335.13;;;13.14;94.08
73171;BME280;61381;50.118;19.962;2023-04-24T18:22:14;97342.81;;;13.03;95.75
73171;BME280;61381;50.118;19.962;2023-04-24T18:27:15;97334.72;;;13.03;96.09
73171;BME280;61381;50.118;19.962;2023-04-24T18:32:17;97338.78;;;12.89;97.78
73171;BME280;61381;50.118;19.962;2023-04-24T18:37:18;97345.94;;;12.84;98.73
73171;BME280;61381;50.118;19.962;2023-04-24T18:42:19;97344.47;;;12.66;100.00
73171;BME280;61381;50.118;19.962;2023-04-24T18:47:22;97352.28;;;12.59;100.00
73171;BME280;61381;50.118;19.962;2023-04-24T18:52:23;97352.47;;;12.54;100.00
73171;BME280;61381;50.118;19.962;2023-04-24T18:57:24;97353.72;;;12.56;100.00
73171;BME280;61381;50.118;19.962;2023-04-24T19:02:27;97362.44;;;12.53;100.00
73171;BME280;61381;50.118;19.962;2023-04-24T19:07:28;97359.00;;;12.44;100.00
73171;BME280;61381;50.118;19.962;2023-04-24T19:12:29;97360.88;;;12.43;100.00
73171;BME280;61381;50.118;19.962;2023-04-24T19:17:32;97367.88;;;12.36;100.00
73171;BME280;61381;50.118;19.962;2023-04-24T19:22:33;97357.00;;;12.32;100.00
73171;BME280;61381;50.118;19.962;2023-04-24T19:27:34;97347.50;;;12.35;100.00
73171;BME280;61381;50.118;19.962;2023-04-24T19:32:36;97342.16;;;12.35;100.00
73171;BME280;61381;50.118;19.962;2023-04-24T19:37:37;97350.38;;;12.29;100.00
73171;BME280;61381;50.118;19.962;2023-04-24T19:42:38;97348.19;;;12.23;100.00
73171;BME280;61381;50.118;19.962;2023-04-24T19:47:41;97347.59;;;12.17;100.00
73171;BME280;61381;50.118;19.962;2023-04-24T19:52:42;97351.41;;;12.16;100.00
73171;BME280;61381;50.118;19.962;2023-04-24T19:57:43;97344.13;;;12.17;100.00
73171;BME280;61381;50.118;19.962;2023-04-24T20:02:45;97337.97;;;12.16;100.00
73171;BME280;61381;50.118;19.962;2023-04-24T20:07:46;97344.44;;;12.15;100.00
73171;BME280;61381;50.118;19.962;2023-04-24T20:12:47;97339.25;;;12.10;100.00
73171;BME280;61381;50.118;19.962;2023-04-24T20:17:50;97333.91;;;12.10;100.00
73171;BME280;61381;50.118;19.962;2023-04-24T20:22:51;97332.81;;;12.02;100.00
73171;BME280;61381;50.118;19.962;2023-04-24T20:27:52;97339.63;;;12.00;100.00
73171;BME280;61381;50.118;19.962;2023-04-24T20:32:54;97336.94;;;12.00;100.00
73171;BME280;61381;50.118;19.962;2023-04-24T20:37:55;97340.41;;;11.91;100.00
73171;BME280;61381;50.118;19.962;2023-04-24T20:42:56;97335.66;;;11.97;100.00
73171;BME280;61381;50.118;19.962;2023-04-24T20:47:58;97341.03;;;11.97;100.00
73171;BME280;61381;50.118;19.962;2023-04-24T20:53:00;97337.72;;;12.00;100.00
73171;BME280;61381;50.118;19.962;2023-04-24T20:58:01;97333.31;;;11.95;100.00
73171;BME280;61381;50.118;19.962;2023-04-24T21:03:03;97341.19;;;12.01;100.00
73171;BME280;61381;50.118;19.962;2023-04-24T21:08:04;97335.31;;;12.07;100.00
73171;BME280;61381;50.118;19.962;2023-04-24T21:13:05;97336.09;;;12.08;100.00
73171;BME280;61381;50.118;19.962;2023-04-24T21:18:08;97340.22;;;12.05;100.00
73171;BME280;61381;50.118;19.962;2023-04-24T21:23:11;97329.53;;;11.97;100.00
73171;BME280;61381;50.118;19.962;2023-04-24T21:28:12;97332.84;;;11.93;100.00
73171;BME280;61381;50.118;19.962;2023-04-24T21:33:15;97337.13;;;11.94;100.00
73171;BME280;61381;50.118;19.962;2023-04-24T21:38:16;97332.84;;;11.93;100.00
73171;BME280;61381;50.118;19.962;2023-04-24T21:43:17;97325.56;;;11.94;100.00
73171;BME280;61381;50.118;19.962;2023-04-24T21:48:20;97329.53;;;11.97;100.00
73171;BME280;61381;50.118;19.962;2023-04-24T21:53:21;97324.78;;;11.93;100.00
73171;BME280;61381;50.118;19.962;2023-04-24T21:58:22;97315.16;;;11.92;100.00
73171;BME280;61381;50.118;19.962;2023-04-24T22:03:24;97317.56;;;11.85;100.00
73171;BME280;61381;50.118;19.962;2023-04-24T22:08:25;97312.31;;;11.89;100.00
73171;BME280;61381;50.118;19.962;2023-04-24T22:13:27;97312.19;;;11.85;100.00
73171;BME280;61381;50.118;19.962;2023-04-24T22:18:29;97315.84;;;11.72;100.00
73171;BME280;61381;50.118;19.962;2023-04-24T22:23:30;97310.31;;;11.68;100.00
73171;BME280;61381;50.118;19.962;2023-04-24T22:28:31;97309.53;;;11.68;100.00
73171;BME280;61381;50.118;19.962;2023-04-24T22:33:33;97309.56;;;11.59;100.00
73171;BME280;61381;50.118;19.962;2023-04-24T22:38:34;97305.03;;;11.42;100.00
73171;BME280;61381;50.118;19.962;2023-04-24T22:43:35;97307.44;;;11.35;100.00
73171;BME280;61381;50.118;19.962;2023-04-24T22:48:38;97306.34;;;11.18;100.00
73171;BME280;61381;50.118;19.962;2023-04-24T22:53:39;97302.72;;;11.14;100.00
73171;BME280;61381;50.118;19.962;2023-04-24T22:58:40;97303.16;;;11.16;100.00
73171;BME280;61381;50.118;19.962;2023-04-24T23:03:42;97298.63;;;11.08;100.00
73171;BME280;61381;50.118;19.962;2023-04-24T23:08:44;97294.69;;;10.97;100.00
73171;BME280;61381;50.118;19.962;2023-04-24T23:13:45;97287.13;;;11.07;100.00
73171;BME280;61381;50.118;19.962;2023-04-24T23:18:48;97284.25;;;11.04;100.00
73171;BME280;61381;50.118;19.962;2023-04-24T23:23:49;97277.19;;;11.08;100.00
73171;BME280;61381;50.118;19.962;2023-04-24T23:28:50;97270.09;;;11.12;100.00
73171;BME280;61381;50.118;19.962;2023-04-24T23:33:52;97270.53;;;11.14;100.00
73171;BME280;61381;50.118;19.962;2023-04-24T23:38:53;97270.09;;;11.12;100.00
73171;BME280;61381;50.118;19.962;2023-04-24T23:43:54;97277.50;;;11.15;100.00
73171;BME280;61381;50.118;19.962;2023-04-24T23:48:57;97278.28;;;11.07;100.00
73171;BME280;61381;50.118;19.962;2023-04-24T23:53:58;97273.38;;;11.18;100.00
73171;BME280;61381;50.118;19.962;2023-04-24T23:58:59;97263.00;;;11.07;100.00
